createdAt,value
2023-04-19T00:00:31.893Z,8.54
2023-04-19T00:02:03.766Z,8.53
2023-04-19T00:03:35.860Z,8.54
2023-04-19T00:05:08.473Z,8.53
2023-04-19T00:06:42.340Z,8.52
2023-04-19T00:08:14.166Z,8.53
2023-04-19T00:09:45.953Z,8.52
2023-04-19T00:11:17.734Z,8.52
2023-04-19T00:12:49.551Z,8.52
2023-04-19T00:14:21.336Z,8.51
2023-04-19T00:15:53.145Z,8.49
2023-04-19T00:17:25.053Z,8.49
2023-04-19T00:18:56.905Z,8.49
2023-04-19T00:20:28.713Z,8.50
2023-04-19T00:22:00.604Z,8.48
2023-04-19T00:23:32.528Z,8.47
2023-04-19T00:25:04.717Z,8.47
2023-04-19T00:26:37.042Z,8.45
2023-04-19T00:28:09.530Z,8.45
2023-04-19T00:29:41.511Z,8.45
2023-04-19T00:31:13.355Z,8.44
2023-04-19T00:32:45.251Z,8.43
2023-04-19T00:34:17.212Z,8.42
2023-04-19T00:35:49.131Z,8.41
2023-04-19T00:37:21.440Z,8.40
2023-04-19T00:38:53.333Z,8.40
2023-04-19T00:40:25.179Z,8.38
2023-04-19T00:42:00.235Z,8.38
2023-04-19T00:43:32.124Z,8.37
2023-04-19T00:45:06.256Z,8.37
2023-04-19T00:46:38.924Z,8.36
2023-04-19T00:48:11.143Z,8.35
2023-04-19T00:49:43.995Z,8.34
2023-04-19T00:51:16.198Z,8.34
2023-04-19T00:52:49.058Z,8.33
2023-04-19T00:54:21.298Z,8.32
2023-04-19T00:55:57.815Z,8.30
2023-04-19T00:57:30.117Z,8.32
2023-04-19T00:59:02.614Z,8.30
2023-04-19T01:00:37.032Z,8.28
2023-04-19T01:02:10.163Z,8.28
2023-04-19T01:03:42.563Z,8.27
2023-04-19T01:05:14.972Z,8.26
2023-04-19T01:06:46.891Z,8.25
2023-04-19T01:08:19.139Z,8.23
2023-04-19T01:09:53.914Z,8.22
2023-04-19T01:11:29.168Z,8.21
2023-04-19T01:13:00.957Z,8.20
2023-04-19T01:14:32.776Z,8.20
2023-04-19T01:16:04.951Z,8.18
2023-04-19T01:17:37.683Z,8.16
2023-04-19T01:19:10.507Z,8.15
2023-04-19T01:20:42.416Z,8.15
2023-04-19T01:22:21.723Z,8.10
2023-04-19T01:23:53.545Z,8.10
2023-04-19T01:25:27.590Z,8.08
2023-04-19T01:26:59.481Z,8.07
2023-04-19T01:28:33.132Z,8.06
2023-04-19T01:30:05.368Z,8.04
2023-04-19T01:31:37.309Z,8.03
2023-04-19T01:33:09.275Z,8.02
2023-04-19T01:34:43.000Z,8.00
2023-04-19T01:36:14.892Z,7.99
2023-04-19T01:37:47.065Z,7.97
2023-04-19T01:39:19.080Z,7.95
2023-04-19T01:40:50.973Z,7.95
2023-04-19T01:42:23.075Z,7.93
2023-04-19T01:43:54.904Z,7.92
2023-04-19T01:45:26.727Z,7.91
2023-04-19T01:46:58.589Z,7.89
2023-04-19T01:48:30.577Z,7.88
2023-04-19T01:50:02.377Z,7.86
2023-04-19T01:51:34.202Z,7.85
2023-04-19T01:53:06.419Z,7.84
2023-04-19T01:54:38.198Z,7.85
2023-04-19T01:56:10.020Z,7.83
2023-04-19T01:57:42.336Z,7.83
2023-04-19T01:59:14.225Z,7.82
2023-04-19T02:00:46.379Z,7.81
2023-04-19T02:02:18.313Z,7.80
2023-04-19T02:03:50.463Z,7.80
2023-04-19T02:05:22.427Z,7.78
2023-04-19T02:06:54.233Z,7.78
2023-04-19T02:08:26.729Z,7.76
2023-04-19T02:09:59.865Z,7.76
2023-04-19T02:11:31.803Z,7.75
2023-04-19T02:13:03.663Z,7.73
2023-04-19T02:14:35.819Z,7.73
2023-04-19T02:16:08.235Z,7.70
2023-04-19T02:17:40.847Z,7.70
2023-04-19T02:19:12.686Z,7.68
2023-04-19T02:20:44.553Z,7.68
2023-04-19T02:22:16.385Z,7.66
2023-04-19T02:23:48.195Z,7.64
2023-04-19T02:25:20.543Z,7.62
2023-04-19T02:26:52.498Z,7.59
2023-04-19T02:28:24.357Z,7.59
2023-04-19T02:29:56.686Z,7.56
2023-04-19T02:31:29.580Z,7.54
2023-04-19T02:33:01.426Z,7.53
2023-04-19T02:34:34.620Z,7.49
2023-04-19T02:36:06.829Z,7.47
2023-04-19T02:37:38.854Z,7.46
2023-04-19T02:39:10.759Z,7.45
2023-04-19T02:40:43.741Z,7.42
2023-04-19T02:42:15.574Z,7.39
2023-04-19T02:43:47.380Z,7.38
2023-04-19T02:45:19.195Z,7.37
2023-04-19T02:46:52.687Z,7.35
2023-04-19T02:48:24.510Z,7.33
2023-04-19T02:49:56.539Z,7.31
2023-04-19T02:51:28.410Z,7.30
2023-04-19T02:53:00.222Z,7.29
2023-04-19T02:54:35.126Z,7.29
2023-04-19T02:56:07.622Z,7.27
2023-04-19T02:57:39.480Z,7.25
2023-04-19T02:59:13.702Z,7.25
2023-04-19T03:00:45.529Z,7.23
2023-04-19T03:02:21.067Z,7.19
2023-04-19T03:03:53.105Z,7.19
2023-04-19T03:05:25.368Z,7.18
2023-04-19T03:06:57.181Z,7.18
2023-04-19T03:08:29.575Z,7.16
2023-04-19T03:10:01.841Z,7.14
2023-04-19T03:11:33.938Z,7.13
2023-04-19T03:13:05.784Z,7.11
2023-04-19T03:14:37.727Z,7.11
2023-04-19T03:16:09.821Z,7.10
2023-04-19T03:17:42.516Z,7.08
2023-04-19T03:19:14.863Z,7.07
2023-04-19T03:20:52.707Z,7.05
2023-04-19T03:22:24.635Z,7.06
2023-04-19T03:23:57.284Z,7.05
2023-04-19T03:25:30.429Z,7.04
2023-04-19T03:27:14.188Z,7.03
2023-04-19T03:28:48.710Z,7.02
2023-04-19T03:30:20.528Z,7.01
2023-04-19T03:31:52.409Z,7.00
2023-04-19T03:33:24.506Z,6.99
2023-04-19T03:34:56.889Z,6.98
2023-04-19T03:36:29.540Z,6.96
2023-04-19T03:38:02.064Z,6.93
2023-04-19T03:39:34.219Z,6.93
2023-04-19T03:41:25.506Z,6.91
2023-04-19T03:43:17.440Z,6.91
2023-04-19T03:44:49.346Z,6.91
2023-04-19T03:46:23.224Z,6.89
2023-04-19T03:47:55.170Z,6.87
2023-04-19T03:49:27.141Z,6.86
2023-04-19T03:51:08.091Z,6.86
2023-04-19T03:52:39.951Z,6.85
2023-04-19T03:54:12.335Z,6.83
2023-04-19T03:55:44.247Z,6.82
2023-04-19T03:57:17.790Z,6.80
2023-04-19T03:58:52.335Z,6.80
2023-04-19T04:00:24.320Z,6.78
2023-04-19T04:02:01.422Z,6.77
2023-04-19T04:03:34.058Z,6.77
2023-04-19T04:05:07.889Z,6.76
2023-04-19T04:06:40.762Z,6.74
2023-04-19T04:08:14.076Z,6.73
2023-04-19T04:09:47.998Z,6.70
2023-04-19T04:11:20.012Z,6.70
2023-04-19T04:12:53.759Z,6.68
2023-04-19T04:14:32.342Z,6.67
2023-04-19T04:16:05.449Z,6.64
2023-04-19T04:17:37.511Z,6.64
2023-04-19T04:19:10.055Z,6.61
2023-04-19T04:20:45.570Z,6.61
2023-04-19T04:22:17.607Z,6.58
2023-04-19T04:23:50.111Z,6.55
2023-04-19T04:25:45.281Z,6.55
2023-04-19T04:27:21.574Z,6.53
2023-04-19T04:28:55.024Z,6.51
2023-04-19T04:30:28.053Z,6.50
2023-04-19T04:32:01.921Z,6.50
2023-04-19T04:33:41.803Z,6.48
2023-04-19T04:35:15.832Z,6.46
2023-04-19T04:36:54.428Z,6.47
2023-04-19T04:38:28.171Z,6.43
2023-04-19T04:40:01.505Z,6.43
2023-04-19T04:41:33.605Z,6.43
2023-04-19T04:43:05.818Z,6.40
2023-04-19T04:44:39.233Z,6.40
2023-04-19T04:46:13.376Z,6.39
2023-04-19T04:47:47.481Z,6.39
2023-04-19T04:49:20.952Z,6.37
2023-04-19T04:50:52.824Z,6.37
2023-04-19T04:52:24.776Z,6.35
2023-04-19T04:54:05.774Z,6.34
2023-04-19T04:55:37.885Z,6.34
2023-04-19T04:57:09.997Z,6.35
2023-04-19T04:58:41.889Z,6.34
2023-04-19T05:00:17.902Z,6.33
2023-04-19T05:02:00.807Z,6.32
2023-04-19T05:03:32.927Z,6.31
2023-04-19T05:05:11.411Z,6.32
2023-04-19T05:06:44.704Z,6.32
2023-04-19T05:08:17.853Z,6.30
2023-04-19T05:09:50.751Z,6.30
2023-04-19T05:11:27.931Z,6.30
2023-04-19T05:13:01.916Z,6.32
2023-04-19T05:14:35.014Z,6.32
2023-04-19T05:16:07.234Z,6.32
2023-04-19T05:17:39.823Z,6.33
2023-04-19T05:19:11.752Z,6.34
2023-04-19T05:20:49.833Z,6.34
2023-04-19T05:22:27.610Z,6.34
2023-04-19T05:23:59.509Z,6.36
2023-04-19T05:25:31.389Z,6.38
2023-04-19T05:27:04.012Z,6.40
2023-04-19T05:28:35.957Z,6.41
2023-04-19T05:30:15.670Z,6.46
2023-04-19T05:31:49.865Z,6.48
2023-04-19T05:33:42.103Z,6.51
2023-04-19T05:35:14.774Z,6.56
2023-04-19T05:36:46.687Z,6.59
2023-04-19T05:38:19.022Z,6.62
2023-04-19T05:39:51.225Z,6.63
2023-04-19T05:41:23.973Z,6.65
2023-04-19T05:42:55.869Z,6.68
2023-04-19T05:44:27.639Z,6.72
2023-04-19T05:45:59.533Z,6.73
2023-04-19T05:47:31.544Z,6.74
2023-04-19T05:49:22.916Z,6.75
2023-04-19T05:51:21.582Z,6.82
2023-04-19T05:53:03.203Z,6.86
2023-04-19T05:54:36.274Z,6.89
2023-04-19T05:56:09.426Z,6.95
2023-04-19T05:57:41.611Z,7.02
2023-04-19T05:59:14.276Z,7.10
2023-04-19T06:00:46.598Z,7.18
2023-04-19T06:02:21.816Z,7.27
2023-04-19T06:03:54.745Z,7.34
2023-04-19T06:05:27.227Z,7.40
2023-04-19T06:07:00.964Z,7.44
2023-04-19T06:08:32.783Z,7.48
2023-04-19T06:10:04.969Z,7.52
2023-04-19T06:11:46.979Z,7.57
2023-04-19T06:13:19.095Z,7.57
2023-04-19T06:14:52.843Z,7.66
2023-04-19T06:16:24.834Z,7.70
2023-04-19T06:17:59.240Z,7.73
2023-04-19T06:19:34.099Z,7.75
2023-04-19T06:21:06.535Z,7.79
2023-04-19T06:22:48.851Z,7.80
2023-04-19T06:24:20.665Z,7.86
2023-04-19T06:25:52.702Z,7.89
2023-04-19T06:27:24.477Z,7.92
2023-04-19T06:28:56.337Z,7.94
2023-04-19T06:30:28.144Z,7.99
2023-04-19T06:32:00.032Z,8.01
2023-04-19T06:33:31.969Z,8.04
2023-04-19T06:35:04.696Z,8.05
2023-04-19T06:36:36.601Z,8.09
2023-04-19T06:38:08.397Z,8.13
2023-04-19T06:39:40.163Z,8.13
2023-04-19T06:41:12.613Z,8.12
2023-04-19T06:42:44.424Z,8.09
2023-04-19T06:44:17.218Z,8.10
2023-04-19T06:45:49.307Z,8.07
2023-04-19T06:47:21.436Z,8.02
2023-04-19T06:48:53.291Z,7.99
2023-04-19T06:50:25.257Z,7.92
2023-04-19T06:51:57.095Z,7.85
2023-04-19T06:53:28.937Z,7.77
2023-04-19T06:55:00.789Z,7.71
2023-04-19T06:56:45.673Z,7.62
2023-04-19T06:58:17.632Z,7.57
2023-04-19T06:59:49.413Z,7.50
2023-04-19T07:01:21.298Z,7.45
2023-04-19T07:02:53.345Z,7.40
2023-04-19T07:04:27.170Z,7.35
2023-04-19T07:05:59.352Z,7.33
2023-04-19T07:07:31.236Z,7.30
2023-04-19T07:09:04.374Z,7.27
2023-04-19T07:10:36.172Z,7.23
2023-04-19T07:12:07.997Z,7.19
2023-04-19T07:13:39.781Z,7.20
2023-04-19T07:15:12.330Z,7.16
2023-04-19T07:16:44.143Z,7.13
2023-04-19T07:18:16.385Z,7.12
2023-04-19T07:19:49.144Z,7.10
2023-04-19T07:21:20.978Z,7.08
2023-04-19T07:22:52.798Z,7.07
2023-04-19T07:24:26.359Z,7.05
2023-04-19T07:25:58.159Z,7.05
2023-04-19T07:27:29.982Z,7.03
2023-04-19T07:29:01.875Z,7.06
2023-04-19T07:30:33.828Z,7.04
2023-04-19T07:32:06.145Z,7.05
2023-04-19T07:33:38.177Z,7.02
2023-04-19T07:35:10.251Z,7.00
2023-04-19T07:36:42.098Z,6.98
2023-04-19T07:38:13.914Z,7.04
2023-04-19T07:39:46.112Z,7.08
2023-04-19T07:41:18.411Z,7.13
2023-04-19T07:42:50.239Z,7.15
2023-04-19T07:44:22.087Z,7.18
2023-04-19T07:45:54.415Z,7.19
2023-04-19T07:47:26.394Z,7.20
2023-04-19T07:48:58.177Z,7.22
2023-04-19T07:50:30.073Z,7.24
2023-04-19T07:52:02.102Z,7.24
2023-04-19T07:53:34.154Z,7.26
2023-04-19T07:55:06.612Z,7.31
2023-04-19T07:56:38.448Z,7.35
2023-04-19T07:58:10.369Z,7.43
2023-04-19T07:59:42.226Z,7.52
2023-04-19T08:01:14.105Z,7.64
2023-04-19T08:02:47.038Z,7.82
2023-04-19T08:04:21.066Z,7.99
2023-04-19T08:05:53.847Z,8.17
2023-04-19T08:07:26.374Z,8.38
2023-04-19T08:08:58.195Z,8.57
2023-04-19T08:10:31.115Z,8.74
2023-04-19T08:12:03.067Z,8.94
2023-04-19T08:13:34.929Z,9.15
2023-04-19T08:15:28.177Z,9.37
2023-04-19T08:18:35.776Z,9.84
2023-04-19T08:20:08.388Z,10.04
2023-04-19T08:21:41.458Z,10.23
2023-04-19T08:23:22.721Z,10.41
2023-04-19T08:24:56.268Z,10.60
2023-04-19T08:26:28.061Z,10.75
2023-04-19T08:28:00.001Z,10.89
2023-04-19T08:29:33.715Z,11.03
2023-04-19T08:31:07.807Z,11.21
2023-04-19T08:32:39.648Z,11.35
2023-04-19T08:34:11.472Z,11.52
2023-04-19T08:35:45.750Z,11.62
2023-04-19T08:37:17.668Z,11.74
2023-04-19T08:39:01.946Z,11.89
2023-04-19T08:40:45.686Z,12.06
2023-04-19T08:42:32.455Z,12.19
2023-04-19T08:44:09.136Z,12.32
2023-04-19T08:45:41.324Z,12.43
2023-04-19T08:47:23.539Z,12.50
2023-04-19T08:49:01.609Z,12.58
2023-04-19T08:50:38.903Z,12.55
2023-04-19T08:52:18.789Z,12.64
2023-04-19T08:53:51.788Z,12.66
2023-04-19T08:55:23.743Z,12.71
2023-04-19T08:56:58.836Z,12.75
2023-04-19T09:00:09.449Z,12.87
2023-04-19T09:01:43.617Z,12.90
2023-04-19T09:03:16.554Z,12.95
2023-04-19T09:04:48.717Z,13.02
2023-04-19T09:06:20.786Z,13.07
2023-04-19T09:07:52.794Z,13.14
2023-04-19T09:09:36.970Z,13.17
2023-04-19T09:11:13.116Z,13.23
2023-04-19T09:13:02.235Z,13.25
2023-04-19T09:14:34.129Z,13.31
2023-04-19T09:16:08.182Z,13.38
2023-04-19T09:17:41.054Z,13.37
2023-04-19T09:19:23.531Z,13.36
2023-04-19T09:21:00.598Z,13.37
2023-04-19T09:22:34.535Z,13.40
2023-04-19T09:24:07.195Z,13.44
2023-04-19T09:25:59.343Z,13.35
2023-04-19T09:27:37.253Z,13.36
2023-04-19T09:29:09.101Z,13.35
2023-04-19T09:32:15.420Z,13.36
2023-04-19T09:33:47.391Z,13.31
2023-04-19T09:35:19.306Z,13.27
2023-04-19T09:37:00.656Z,13.20
2023-04-19T09:38:48.927Z,13.14
2023-04-19T09:40:25.413Z,13.16
2023-04-19T09:41:58.430Z,13.18
2023-04-19T09:43:55.902Z,13.19
2023-04-19T09:46:56.751Z,13.29
2023-04-19T09:48:28.710Z,13.32
2023-04-19T09:50:19.240Z,13.32
2023-04-19T09:51:56.516Z,13.29
2023-04-19T09:53:30.142Z,13.21
2023-04-19T09:55:18.150Z,13.08
2023-04-19T09:56:57.394Z,12.97
2023-04-19T10:00:09.053Z,12.80
2023-04-19T10:01:58.414Z,12.68
2023-04-19T10:03:31.277Z,12.65
2023-04-19T10:05:19.610Z,12.62
2023-04-19T10:07:19.424Z,12.56
2023-04-19T10:08:47.962Z,12.56
2023-04-19T10:10:23.854Z,12.58
2023-04-19T10:12:07.796Z,12.66
2023-04-19T10:13:57.532Z,12.67
2023-04-19T10:15:49.452Z,12.74
2023-04-19T10:17:24.093Z,12.86
2023-04-19T10:18:57.064Z,12.98
2023-04-19T10:20:49.690Z,13.08
2023-04-19T10:22:21.571Z,13.18
2023-04-19T10:23:54.050Z,13.24
2023-04-19T10:25:30.376Z,13.24
2023-04-19T10:27:05.350Z,13.23
2023-04-19T10:28:38.283Z,13.24
2023-04-19T10:30:18.318Z,13.24
2023-04-19T10:31:51.412Z,13.30
2023-04-19T10:33:28.055Z,13.32
2023-04-19T10:35:04.937Z,13.37
2023-04-19T10:36:38.232Z,13.37
2023-04-19T10:38:13.053Z,13.32
2023-04-19T10:39:45.546Z,13.26
2023-04-19T10:41:19.415Z,13.18
2023-04-19T10:43:13.066Z,13.08
2023-04-19T10:45:22.758Z,12.99
2023-04-19T10:46:55.111Z,12.95
2023-04-19T10:48:27.486Z,12.90
2023-04-19T10:49:59.283Z,12.86
2023-04-19T10:51:39.632Z,12.90
2023-04-19T10:53:46.538Z,12.94
2023-04-19T10:55:21.573Z,13.00
2023-04-19T10:57:05.222Z,13.02
2023-04-19T10:59:01.945Z,13.08
2023-04-19T11:00:35.958Z,13.12
2023-04-19T11:02:23.088Z,13.09
2023-04-19T11:03:55.407Z,13.11
2023-04-19T11:05:27.660Z,13.15
2023-04-19T11:07:03.229Z,13.19
2023-04-19T11:08:35.722Z,13.18
2023-04-19T11:10:08.913Z,13.24
2023-04-19T11:11:40.735Z,13.27
2023-04-19T11:13:13.803Z,13.26
2023-04-19T11:14:47.842Z,13.21
2023-04-19T11:16:21.327Z,13.21
2023-04-19T11:18:11.401Z,13.19
2023-04-19T11:19:53.944Z,13.18
2023-04-19T11:21:25.761Z,13.19
2023-04-19T11:23:01.102Z,13.22
2023-04-19T11:24:35.507Z,13.24
2023-04-19T11:26:11.873Z,13.21
2023-04-19T11:27:45.580Z,13.20
2023-04-19T11:29:20.112Z,13.25
2023-04-19T11:30:52.679Z,13.29
2023-04-19T11:32:24.547Z,13.28
2023-04-19T11:33:59.442Z,13.26
2023-04-19T11:35:31.631Z,13.22
2023-04-19T11:37:03.479Z,13.16
2023-04-19T11:38:35.407Z,13.08
2023-04-19T11:40:08.057Z,12.96
2023-04-19T11:41:40.070Z,12.85
2023-04-19T11:43:11.945Z,12.70
2023-04-19T11:44:49.196Z,12.56
2023-04-19T11:46:21.247Z,12.44
2023-04-19T11:47:53.253Z,12.29
2023-04-19T11:49:26.519Z,12.21
2023-04-19T11:50:59.697Z,12.12
2023-04-19T11:52:35.680Z,12.05
2023-04-19T11:54:15.271Z,11.97
2023-04-19T11:55:51.302Z,11.98
2023-04-19T11:57:31.496Z,11.98
2023-04-19T11:59:03.339Z,11.98
2023-04-19T12:00:35.543Z,12.00
2023-04-19T12:02:12.124Z,11.96
2023-04-19T12:03:49.383Z,11.93
2023-04-19T12:05:21.899Z,11.91
2023-04-19T12:07:00.729Z,11.90
2023-04-19T12:08:35.166Z,11.88
2023-04-19T12:10:12.068Z,11.89
2023-04-19T12:11:50.236Z,11.88
2023-04-19T12:13:22.174Z,11.88
2023-04-19T12:14:53.992Z,11.90
2023-04-19T12:16:29.166Z,12.00
2023-04-19T12:18:02.734Z,11.99
2023-04-19T12:19:42.434Z,11.97
2023-04-19T12:21:25.947Z,12.05
2023-04-19T12:22:57.716Z,12.13
2023-04-19T12:24:29.554Z,12.13
2023-04-19T12:26:05.879Z,12.15
2023-04-19T12:27:37.681Z,12.20
2023-04-19T12:29:09.541Z,12.25
2023-04-19T12:30:42.229Z,12.24
2023-04-19T12:32:16.223Z,12.24
2023-04-19T12:33:49.261Z,12.32
2023-04-19T12:35:23.208Z,12.41
2023-04-19T12:36:55.424Z,12.49
2023-04-19T12:38:27.779Z,12.57
2023-04-19T12:39:59.673Z,12.67
2023-04-19T12:41:31.559Z,12.78
2023-04-19T12:43:03.418Z,12.76
2023-04-19T12:44:35.266Z,12.84
2023-04-19T12:46:07.187Z,12.83
2023-04-19T12:47:39.887Z,12.84
2023-04-19T12:49:11.826Z,12.83
2023-04-19T12:50:43.629Z,12.85
2023-04-19T12:52:15.625Z,12.90
2023-04-19T12:53:50.661Z,12.93
2023-04-19T12:55:22.590Z,13.05
2023-04-19T12:56:54.368Z,13.08
2023-04-19T12:58:28.318Z,13.10
2023-04-19T13:00:00.290Z,13.14
2023-04-19T13:01:33.099Z,13.13
2023-04-19T13:03:05.091Z,13.09
2023-04-19T13:04:37.276Z,13.07
2023-04-19T13:06:09.243Z,12.99
2023-04-19T13:07:41.405Z,12.96
2023-04-19T13:09:14.976Z,12.89
2023-04-19T13:10:47.511Z,12.81
2023-04-19T13:12:19.977Z,12.71
2023-04-19T13:13:52.749Z,12.67
2023-04-19T13:15:24.749Z,12.66
2023-04-19T13:16:56.664Z,12.66
2023-04-19T13:18:28.454Z,12.69
2023-04-19T13:20:00.277Z,12.74
2023-04-19T13:21:32.090Z,12.72
2023-04-19T13:23:03.913Z,12.72
2023-04-19T13:24:35.907Z,12.68
2023-04-19T13:26:07.680Z,12.69
2023-04-19T13:27:39.496Z,12.70
2023-04-19T13:29:11.338Z,12.73
2023-04-19T13:30:43.091Z,12.75
2023-04-19T13:32:15.345Z,12.82
2023-04-19T13:33:47.138Z,12.91
2023-04-19T13:35:18.953Z,13.05
2023-04-19T13:36:50.730Z,13.15
2023-04-19T13:38:23.293Z,13.19
2023-04-19T13:40:03.956Z,13.24
2023-04-19T13:41:42.877Z,13.32
2023-04-19T13:43:14.654Z,13.37
2023-04-19T13:44:46.422Z,13.36
2023-04-19T13:46:18.220Z,13.34
2023-04-19T13:47:50.012Z,13.27
2023-04-19T13:49:21.854Z,13.21
2023-04-19T13:50:55.097Z,13.11
2023-04-19T13:52:27.030Z,13.02
2023-04-19T13:53:58.829Z,12.96
2023-04-19T13:55:30.686Z,12.94
2023-04-19T13:57:03.071Z,12.92
2023-04-19T13:58:36.311Z,12.92
2023-04-19T14:00:08.776Z,12.97
2023-04-19T14:01:41.176Z,13.08
2023-04-19T14:03:13.274Z,13.18
2023-04-19T14:04:45.194Z,13.34
2023-04-19T14:06:17.234Z,13.40
2023-04-19T14:07:49.060Z,13.41
2023-04-19T14:09:20.887Z,13.44
2023-04-19T14:10:52.746Z,13.38
2023-04-19T14:12:24.551Z,13.30
2023-04-19T14:13:56.475Z,13.14
2023-04-19T14:15:28.442Z,12.96
2023-04-19T14:17:00.229Z,12.74
2023-04-19T14:18:32.019Z,12.47
2023-04-19T14:20:06.872Z,12.18
2023-04-19T14:21:39.614Z,11.87
2023-04-19T14:23:11.604Z,11.58
2023-04-19T14:24:43.835Z,11.27
2023-04-19T14:26:15.821Z,10.97
2023-04-19T14:27:47.679Z,10.65
2023-04-19T14:29:19.511Z,10.37
2023-04-19T14:30:51.988Z,10.07
2023-04-19T14:32:26.750Z,9.81
2023-04-19T14:34:00.069Z,9.59
2023-04-19T14:35:32.069Z,9.36
2023-04-19T14:37:03.902Z,9.17
2023-04-19T14:38:35.830Z,8.99
2023-04-19T14:40:08.352Z,8.86
2023-04-19T14:41:40.191Z,8.74
2023-04-19T14:43:15.464Z,8.61
2023-04-19T14:44:47.529Z,8.55
2023-04-19T14:46:19.360Z,8.50
2023-04-19T14:47:51.513Z,8.42
2023-04-19T14:49:23.327Z,8.39
2023-04-19T14:50:55.933Z,8.33
2023-04-19T14:52:28.024Z,8.32
2023-04-19T14:53:59.951Z,8.30
2023-04-19T14:55:31.751Z,8.26
2023-04-19T14:57:03.629Z,8.30
2023-04-19T14:58:35.703Z,8.32
2023-04-19T15:00:09.592Z,8.28
2023-04-19T15:01:41.646Z,8.29
2023-04-19T15:03:13.740Z,8.25
2023-04-19T15:04:45.821Z,8.22
2023-04-19T15:06:17.761Z,8.20
2023-04-19T15:07:49.778Z,8.16
2023-04-19T15:09:21.679Z,8.10
2023-04-19T15:10:53.518Z,8.06
2023-04-19T15:12:25.405Z,8.01
2023-04-19T15:13:57.216Z,7.93
2023-04-19T15:15:29.029Z,7.87
2023-04-19T15:17:01.021Z,7.77
2023-04-19T15:18:32.829Z,7.69
2023-04-19T15:20:06.094Z,7.61
2023-04-19T15:21:38.002Z,7.55
2023-04-19T15:23:09.822Z,7.47
2023-04-19T15:24:41.629Z,7.40
2023-04-19T15:26:13.698Z,7.37
2023-04-19T15:27:45.728Z,7.30
2023-04-19T15:29:17.669Z,7.22
2023-04-19T15:31:18.835Z,7.12
2023-04-19T15:32:50.850Z,7.12
2023-04-19T15:34:22.712Z,7.08
2023-04-19T15:35:55.593Z,7.05
2023-04-19T15:37:27.761Z,7.04
2023-04-19T15:38:59.771Z,7.02
2023-04-19T15:40:32.096Z,7.01
2023-04-19T15:42:04.065Z,7.01
2023-04-19T15:43:35.899Z,7.00
2023-04-19T15:45:08.256Z,7.01
2023-04-19T15:46:40.110Z,7.01
2023-04-19T15:48:12.092Z,7.04
2023-04-19T15:49:43.906Z,7.05
2023-04-19T15:51:16.295Z,7.00
2023-04-19T15:52:48.126Z,7.00
2023-04-19T15:54:21.780Z,6.97
2023-04-19T15:55:55.816Z,6.94
2023-04-19T15:57:27.967Z,6.93
2023-04-19T15:58:59.926Z,6.89
2023-04-19T16:00:31.876Z,6.89
2023-04-19T16:02:03.866Z,6.88
2023-04-19T16:03:35.896Z,6.85
2023-04-19T16:05:08.170Z,6.83
2023-04-19T16:06:39.959Z,6.84
2023-04-19T16:08:17.407Z,6.82
2023-04-19T16:09:49.559Z,6.84
2023-04-19T16:11:21.750Z,6.82
2023-04-19T16:12:53.562Z,6.82
2023-04-19T16:14:25.494Z,6.83
2023-04-19T16:15:57.384Z,6.82
2023-04-19T16:17:29.233Z,6.83
2023-04-19T16:19:01.059Z,6.82
2023-04-19T16:20:32.869Z,6.84
2023-04-19T16:22:05.693Z,6.84
2023-04-19T16:23:37.484Z,6.88
2023-04-19T16:25:11.846Z,6.86
2023-04-19T16:26:43.712Z,6.87
2023-04-19T16:28:15.742Z,6.89
2023-04-19T16:29:47.522Z,6.88
2023-04-19T16:31:19.342Z,6.87
2023-04-19T16:32:51.496Z,6.85
2023-04-19T16:34:25.579Z,6.82
2023-04-19T16:35:57.390Z,6.81
2023-04-19T16:37:29.197Z,6.80
2023-04-19T16:39:01.751Z,6.77
2023-04-19T16:40:33.586Z,6.76
2023-04-19T16:42:05.550Z,6.74
2023-04-19T16:43:37.393Z,6.72
2023-04-19T16:45:09.691Z,6.69
2023-04-19T16:46:42.773Z,6.65
2023-04-19T16:48:14.634Z,6.63
2023-04-19T16:49:48.024Z,6.60
2023-04-19T16:51:20.001Z,6.58
2023-04-19T16:52:51.837Z,6.54
2023-04-19T16:54:23.626Z,6.52
2023-04-19T16:55:56.680Z,6.49
2023-04-19T16:57:28.625Z,6.46
2023-04-19T16:59:01.559Z,6.45
2023-04-19T17:00:33.520Z,6.44
2023-04-19T17:02:07.689Z,6.42
2023-04-19T17:03:40.004Z,6.41
2023-04-19T17:05:13.966Z,6.39
2023-04-19T17:06:45.938Z,6.39
2023-04-19T17:08:17.725Z,6.36
2023-04-19T17:09:50.824Z,6.35
2023-04-19T17:11:23.000Z,6.33
2023-04-19T17:12:55.734Z,6.32
2023-04-19T17:14:28.180Z,6.29
2023-04-19T17:16:00.047Z,6.29
2023-04-19T17:17:31.904Z,6.26
2023-04-19T17:19:03.729Z,6.26
2023-04-19T17:20:35.804Z,6.23
2023-04-19T17:22:07.620Z,6.22
2023-04-19T17:23:39.406Z,6.22
2023-04-19T17:25:11.247Z,6.19
2023-04-19T17:26:43.056Z,6.19
2023-04-19T17:28:14.839Z,6.18
2023-04-19T17:29:46.657Z,6.17
2023-04-19T17:31:18.513Z,6.15
2023-04-19T17:32:50.441Z,6.15
2023-04-19T17:34:22.912Z,6.14
2023-04-19T17:35:54.687Z,6.13
2023-04-19T17:37:26.541Z,6.12
2023-04-19T17:38:58.389Z,6.11
2023-04-19T17:40:30.194Z,6.09
2023-04-19T17:42:01.996Z,6.09
2023-04-19T17:43:33.786Z,6.08
2023-04-19T17:45:10.976Z,6.09
2023-04-19T17:46:42.898Z,6.07
2023-04-19T17:48:14.765Z,6.07
2023-04-19T17:49:47.009Z,6.05
2023-04-19T17:51:18.909Z,6.04
2023-04-19T17:52:50.797Z,6.03
2023-04-19T17:54:22.706Z,6.03
2023-04-19T17:55:54.595Z,6.02
2023-04-19T17:57:29.241Z,6.01
2023-04-19T17:59:03.734Z,6.00
2023-04-19T18:00:35.551Z,6.00
2023-04-19T18:02:10.116Z,5.99
2023-04-19T18:03:42.514Z,5.98
2023-04-19T18:05:14.567Z,5.98
2023-04-19T18:06:47.069Z,5.98
2023-04-19T18:08:18.934Z,5.97
2023-04-19T18:09:53.705Z,5.97
2023-04-19T18:11:28.147Z,5.97
2023-04-19T18:13:00.588Z,5.96
2023-04-19T18:14:32.662Z,5.95
2023-04-19T18:16:05.348Z,5.93
2023-04-19T18:17:37.258Z,5.93
2023-04-19T18:19:09.072Z,5.93
2023-04-19T18:20:40.963Z,5.92
2023-04-19T18:22:12.786Z,5.92
2023-04-19T18:23:44.582Z,5.91
2023-04-19T18:25:16.578Z,5.90
2023-04-19T18:26:48.399Z,5.91
2023-04-19T18:28:20.963Z,5.89
2023-04-19T18:29:53.016Z,5.89
2023-04-19T18:31:24.908Z,5.88
2023-04-19T18:32:56.897Z,5.88
2023-04-19T18:34:28.758Z,5.87
2023-04-19T18:36:00.573Z,5.86
2023-04-19T18:37:32.404Z,5.87
2023-04-19T18:39:04.269Z,5.86
2023-04-19T18:40:36.161Z,5.84
2023-04-19T18:42:08.013Z,5.84
2023-04-19T18:43:39.873Z,5.83
2023-04-19T18:45:12.040Z,5.83
2023-04-19T18:46:43.857Z,5.83
2023-04-19T18:48:15.761Z,5.82
2023-04-19T18:50:02.691Z,5.80
2023-04-19T18:51:36.930Z,5.80
2023-04-19T18:53:08.801Z,5.77
2023-04-19T18:54:40.638Z,5.77
2023-04-19T18:56:12.575Z,5.77
2023-04-19T18:57:44.517Z,5.76
2023-04-19T18:59:16.749Z,5.75
2023-04-19T19:00:49.365Z,5.74
2023-04-19T19:02:21.336Z,5.75
2023-04-19T19:04:19.240Z,5.73
2023-04-19T19:05:46.494Z,5.73
2023-04-19T19:07:34.784Z,5.73
2023-04-19T19:09:08.157Z,5.74
2023-04-19T19:11:08.760Z,5.72
2023-04-19T19:12:31.927Z,5.73
2023-04-19T19:14:03.841Z,5.73
2023-04-19T19:15:36.985Z,5.72
2023-04-19T19:17:09.465Z,5.71
2023-04-19T19:18:41.605Z,5.71
2023-04-19T19:20:13.455Z,5.71
2023-04-19T19:21:47.525Z,5.71
2023-04-19T19:23:20.511Z,5.72
2023-04-19T19:24:58.101Z,5.71
2023-04-19T19:26:30.263Z,5.71
2023-04-19T19:28:08.233Z,5.71
2023-04-19T19:29:41.516Z,5.72
2023-04-19T19:31:13.473Z,5.71
2023-04-19T19:32:45.394Z,5.70
2023-04-19T19:34:25.969Z,5.71
2023-04-19T19:36:01.127Z,5.72
2023-04-19T19:37:32.996Z,5.72
2023-04-19T19:39:04.916Z,5.72
2023-04-19T19:40:58.234Z,5.71
2023-04-19T19:42:29.015Z,5.70
2023-04-19T19:44:01.335Z,5.69
2023-04-19T19:45:33.316Z,5.69
2023-04-19T19:47:09.951Z,5.67
2023-04-19T19:48:42.935Z,5.65
2023-04-19T19:50:57.741Z,5.65
2023-04-19T19:52:06.807Z,5.63
2023-04-19T19:53:38.839Z,5.63
2023-04-19T19:55:12.661Z,5.62
2023-04-19T19:57:08.141Z,5.61
2023-04-19T19:58:49.659Z,5.62
2023-04-19T20:00:43.877Z,5.61
2023-04-19T20:02:16.211Z,5.59
2023-04-19T20:03:48.311Z,5.57
2023-04-19T20:05:20.907Z,5.55
2023-04-19T20:08:28.602Z,5.53
2023-04-19T20:10:00.613Z,5.51
2023-04-19T20:11:32.515Z,5.51
2023-04-19T20:13:06.840Z,5.50
2023-04-19T20:14:38.871Z,5.49
2023-04-19T20:16:11.141Z,5.49
2023-04-19T20:17:43.950Z,5.47
2023-04-19T20:19:16.328Z,5.48
2023-04-19T20:20:48.386Z,5.45
2023-04-19T20:22:20.604Z,5.45
2023-04-19T20:23:54.160Z,5.45
2023-04-19T20:25:26.108Z,5.42
2023-04-19T20:26:57.995Z,5.42
2023-04-19T20:28:29.852Z,5.41
2023-04-19T20:30:01.899Z,5.39
2023-04-19T20:31:33.880Z,5.39
2023-04-19T20:33:05.832Z,5.38
2023-04-19T20:34:38.061Z,5.37
2023-04-19T20:36:10.141Z,5.36
2023-04-19T20:37:42.199Z,5.35
2023-04-19T20:39:14.192Z,5.33
2023-04-19T20:40:46.153Z,5.34
2023-04-19T20:42:20.020Z,5.32
2023-04-19T20:43:51.944Z,5.32
2023-04-19T20:45:25.737Z,5.31
2023-04-19T20:46:57.648Z,5.29